sensor_id;sensor_type;location;lat;lon;timestamp;P1;durP1;ratioP1;P2;durP2;ratioP2
74630;SDS011;63138;55.082;38.804;2023-04-04T00:00:15;21.33;;;12.90;;
74630;SDS011;63138;55.082;38.804;2023-04-04T00:02:41;18.17;;;12.77;;
74630;SDS011;63138;55.082;38.804;2023-04-04T00:05:07;20.17;;;12.93;;
74630;SDS011;63138;55.082;38.804;2023-04-04T00:07:36;20.55;;;12.60;;
74630;SDS011;63138;55.082;38.804;2023-04-04T00:10:02;23.40;;;13.40;;
74630;SDS011;63138;55.082;38.804;2023-04-04T00:12:46;20.23;;;12.63;;
74630;SDS011;63138;55.082;38.804;2023-04-04T00:15:12;25.02;;;13.68;;
74630;SDS011;63138;55.082;38.804;2023-04-04T00:17:56;25.33;;;13.07;;
74630;SDS011;63138;55.082;38.804;2023-04-04T00:20:22;21.13;;;12.60;;
74630;SDS011;63138;55.082;38.804;2023-04-04T00:22:48;19.40;;;12.63;;
74630;SDS011;63138;55.082;38.804;2023-04-04T00:25:14;22.10;;;13.73;;
74630;SDS011;63138;55.082;38.804;2023-04-04T00:27:39;21.45;;;13.30;;
74630;SDS011;63138;55.082;38.804;2023-04-04T00:30:07;23.35;;;14.45;;
74630;SDS011;63138;55.082;38.804;2023-04-04T00:32:34;26.67;;;15.60;;
74630;SDS011;63138;55.082;38.804;2023-04-04T00:35:01;22.43;;;14.27;;
74630;SDS011;63138;55.082;38.804;2023-04-04T00:37:28;23.65;;;14.18;;
74630;SDS011;63138;55.082;38.804;2023-04-04T00:39:55;22.00;;;13.90;;
74630;SDS011;63138;55.082;38.804;2023-04-04T00:42:21;22.05;;;13.45;;
74630;SDS011;63138;55.082;38.804;2023-04-04T00:44:53;19.42;;;12.70;;
74630;SDS011;63138;55.082;38.804;2023-04-04T00:47:22;21.10;;;13.00;;
74630;SDS011;63138;55.082;38.804;2023-04-04T00:49:50;22.15;;;14.25;;
74630;SDS011;63138;55.082;38.804;2023-04-04T00:52:16;22.52;;;13.00;;
74630;SDS011;63138;55.082;38.804;2023-04-04T00:54:42;22.13;;;14.20;;
74630;SDS011;63138;55.082;38.804;2023-04-04T00:57:08;21.63;;;13.50;;
74630;SDS011;63138;55.082;38.804;2023-04-04T00:59:35;25.13;;;13.65;;
74630;SDS011;63138;55.082;38.804;2023-04-04T01:02:26;20.27;;;13.27;;
74630;SDS011;63138;55.082;38.804;2023-04-04T01:04:54;20.03;;;14.07;;
74630;SDS011;63138;55.082;38.804;2023-04-04T01:10:12;21.50;;;12.32;;
74630;SDS011;63138;55.082;38.804;2023-04-04T01:12:39;21.90;;;13.50;;
74630;SDS011;63138;55.082;38.804;2023-04-04T01:15:15;21.95;;;12.85;;
74630;SDS011;63138;55.082;38.804;2023-04-04T01:17:43;19.20;;;11.20;;
74630;SDS011;63138;55.082;38.804;2023-04-04T01:20:12;20.60;;;12.85;;
74630;SDS011;63138;55.082;38.804;2023-04-04T01:22:48;24.95;;;13.63;;
74630;SDS011;63138;55.082;38.804;2023-04-04T01:25:17;18.95;;;12.65;;
74630;SDS011;63138;55.082;38.804;2023-04-04T01:27:49;22.52;;;12.70;;
74630;SDS011;63138;55.082;38.804;2023-04-04T01:30:18;18.20;;;12.00;;
74630;SDS011;63138;55.082;38.804;2023-04-04T01:32:45;20.83;;;13.02;;
74630;SDS011;63138;55.082;38.804;2023-04-04T01:35:27;21.17;;;11.93;;
74630;SDS011;63138;55.082;38.804;2023-04-04T01:38:17;20.33;;;12.05;;
74630;SDS011;63138;55.082;38.804;2023-04-04T01:40:48;18.02;;;12.55;;
74630;SDS011;63138;55.082;38.804;2023-04-04T01:43:16;21.17;;;12.00;;
74630;SDS011;63138;55.082;38.804;2023-04-04T01:45:44;17.73;;;11.90;;
74630;SDS011;63138;55.082;38.804;2023-04-04T01:48:15;19.40;;;12.88;;
74630;SDS011;63138;55.082;38.804;2023-04-04T01:50:44;20.27;;;12.57;;
74630;SDS011;63138;55.082;38.804;2023-04-04T01:56:06;25.47;;;14.13;;
74630;SDS011;63138;55.082;38.804;2023-04-04T01:58:35;17.25;;;12.25;;
74630;SDS011;63138;55.082;38.804;2023-04-04T02:01:01;18.30;;;11.45;;
74630;SDS011;63138;55.082;38.804;2023-04-04T02:03:27;21.40;;;11.68;;
74630;SDS011;63138;55.082;38.804;2023-04-04T02:06:22;17.25;;;12.02;;
74630;SDS011;63138;55.082;38.804;2023-04-04T02:08:48;17.23;;;11.07;;
74630;SDS011;63138;55.082;38.804;2023-04-04T02:11:15;18.00;;;11.48;;
74630;SDS011;63138;55.082;38.804;2023-04-04T02:13:41;18.75;;;11.40;;
74630;SDS011;63138;55.082;38.804;2023-04-04T02:16:35;17.27;;;11.50;;
74630;SDS011;63138;55.082;38.804;2023-04-04T02:19:01;17.48;;;11.50;;
74630;SDS011;63138;55.082;38.804;2023-04-04T02:21:27;15.83;;;11.77;;
74630;SDS011;63138;55.082;38.804;2023-04-04T02:23:53;19.60;;;11.88;;
74630;SDS011;63138;55.082;38.804;2023-04-04T02:29:10;20.98;;;13.32;;
74630;SDS011;63138;55.082;38.804;2023-04-04T02:31:36;20.00;;;12.20;;
74630;SDS011;63138;55.082;38.804;2023-04-04T02:34:01;19.08;;;11.85;;
74630;SDS011;63138;55.082;38.804;2023-04-04T02:36:30;19.83;;;12.57;;
74630;SDS011;63138;55.082;38.804;2023-04-04T02:38:57;17.27;;;12.37;;
74630;SDS011;63138;55.082;38.804;2023-04-04T02:41:25;21.95;;;12.73;;
74630;SDS011;63138;55.082;38.804;2023-04-04T02:43:51;19.95;;;12.35;;
74630;SDS011;63138;55.082;38.804;2023-04-04T02:46:21;19.05;;;12.88;;
74630;SDS011;63138;55.082;38.804;2023-04-04T02:48:50;21.93;;;13.63;;
74630;SDS011;63138;55.082;38.804;2023-04-04T02:51:16;27.65;;;15.68;;
74630;SDS011;63138;55.082;38.804;2023-04-04T02:53:46;20.80;;;14.10;;
74630;SDS011;63138;55.082;38.804;2023-04-04T02:56:21;23.77;;;14.60;;
74630;SDS011;63138;55.082;38.804;2023-04-04T02:58:48;20.73;;;14.13;;
74630;SDS011;63138;55.082;38.804;2023-04-04T03:01:14;21.55;;;13.93;;
74630;SDS011;63138;55.082;38.804;2023-04-04T03:03:41;25.02;;;16.15;;
74630;SDS011;63138;55.082;38.804;2023-04-04T03:06:10;23.92;;;14.77;;
74630;SDS011;63138;55.082;38.804;2023-04-04T03:08:38;23.13;;;13.83;;
74630;SDS011;63138;55.082;38.804;2023-04-04T03:11:04;23.73;;;14.15;;
74630;SDS011;63138;55.082;38.804;2023-04-04T03:13:31;23.45;;;13.30;;
74630;SDS011;63138;55.082;38.804;2023-04-04T03:16:00;21.63;;;14.20;;
74630;SDS011;63138;55.082;38.804;2023-04-04T03:18:31;22.80;;;13.67;;
74630;SDS011;63138;55.082;38.804;2023-04-04T03:21:00;22.02;;;13.00;;
74630;SDS011;63138;55.082;38.804;2023-04-04T03:23:27;23.15;;;13.13;;
74630;SDS011;63138;55.082;38.804;2023-04-04T03:25:56;21.20;;;13.02;;
74630;SDS011;63138;55.082;38.804;2023-04-04T03:28:22;19.55;;;13.90;;
74630;SDS011;63138;55.082;38.804;2023-04-04T03:30:50;22.37;;;13.23;;
74630;SDS011;63138;55.082;38.804;2023-04-04T03:33:40;19.70;;;12.88;;
74630;SDS011;63138;55.082;38.804;2023-04-04T03:36:11;17.63;;;12.32;;
74630;SDS011;63138;55.082;38.804;2023-04-04T03:38:38;18.25;;;11.98;;
74630;SDS011;63138;55.082;38.804;2023-04-04T03:41:05;19.37;;;12.90;;
74630;SDS011;63138;55.082;38.804;2023-04-04T03:43:32;21.13;;;13.13;;
74630;SDS011;63138;55.082;38.804;2023-04-04T03:46:02;18.25;;;12.02;;
74630;SDS011;63138;55.082;38.804;2023-04-04T03:48:29;20.48;;;13.07;;
74630;SDS011;63138;55.082;38.804;2023-04-04T03:50:57;22.67;;;13.48;;
74630;SDS011;63138;55.082;38.804;2023-04-04T03:53:26;18.70;;;11.37;;
74630;SDS011;63138;55.082;38.804;2023-04-04T03:55:54;19.13;;;12.68;;
74630;SDS011;63138;55.082;38.804;2023-04-04T03:58:21;17.73;;;11.93;;
74630;SDS011;63138;55.082;38.804;2023-04-04T04:00:47;22.85;;;12.57;;
74630;SDS011;63138;55.082;38.804;2023-04-04T04:03:13;20.88;;;12.52;;
74630;SDS011;63138;55.082;38.804;2023-04-04T04:05:39;21.03;;;12.53;;
74630;SDS011;63138;55.082;38.804;2023-04-04T04:08:09;21.75;;;12.82;;
74630;SDS011;63138;55.082;38.804;2023-04-04T04:10:37;19.58;;;12.43;;
74630;SDS011;63138;55.082;38.804;2023-04-04T04:13:28;15.48;;;11.27;;
74630;SDS011;63138;55.082;38.804;2023-04-04T04:15:54;23.63;;;12.33;;
74630;SDS011;63138;55.082;38.804;2023-04-04T04:18:22;21.42;;;13.85;;
74630;SDS011;63138;55.082;38.804;2023-04-04T04:20:50;21.40;;;14.18;;
74630;SDS011;63138;55.082;38.804;2023-04-04T04:23:21;19.23;;;13.18;;
74630;SDS011;63138;55.082;38.804;2023-04-04T04:25:49;21.10;;;13.93;;
74630;SDS011;63138;55.082;38.804;2023-04-04T04:28:17;24.63;;;13.75;;
74630;SDS011;63138;55.082;38.804;2023-04-04T04:30:45;23.73;;;14.60;;
74630;SDS011;63138;55.082;38.804;2023-04-04T04:33:35;21.02;;;13.63;;
74630;SDS011;63138;55.082;38.804;2023-04-04T04:36:03;22.25;;;13.45;;
74630;SDS011;63138;55.082;38.804;2023-04-04T04:39:21;21.00;;;13.67;;
74630;SDS011;63138;55.082;38.804;2023-04-04T04:42:08;18.77;;;13.38;;
74630;SDS011;63138;55.082;38.804;2023-04-04T04:44:39;23.35;;;14.25;;
74630;SDS011;63138;55.082;38.804;2023-04-04T04:47:05;21.30;;;13.38;;
74630;SDS011;63138;55.082;38.804;2023-04-04T04:49:31;26.67;;;13.70;;
74630;SDS011;63138;55.082;38.804;2023-04-04T04:52:03;22.08;;;14.05;;
74630;SDS011;63138;55.082;38.804;2023-04-04T04:54:31;17.85;;;13.00;;
74630;SDS011;63138;55.082;38.804;2023-04-04T04:56:58;16.50;;;11.00;;
74630;SDS011;63138;55.082;38.804;2023-04-04T04:59:27;19.37;;;12.67;;
74630;SDS011;63138;55.082;38.804;2023-04-04T05:01:54;19.40;;;12.52;;
74630;SDS011;63138;55.082;38.804;2023-04-04T05:04:21;16.83;;;12.82;;
74630;SDS011;63138;55.082;38.804;2023-04-04T05:07:01;18.52;;;10.88;;
74630;SDS011;63138;55.082;38.804;2023-04-04T05:09:28;18.27;;;11.52;;
74630;SDS011;63138;55.082;38.804;2023-04-04T05:11:54;18.30;;;11.20;;
74630;SDS011;63138;55.082;38.804;2023-04-04T05:14:25;14.40;;;9.38;;
74630;SDS011;63138;55.082;38.804;2023-04-04T05:16:55;13.98;;;11.20;;
74630;SDS011;63138;55.082;38.804;2023-04-04T05:19:30;15.70;;;11.25;;
74630;SDS011;63138;55.082;38.804;2023-04-04T05:21:57;17.23;;;11.23;;
74630;SDS011;63138;55.082;38.804;2023-04-04T05:24:40;18.27;;;9.83;;
74630;SDS011;63138;55.082;38.804;2023-04-04T05:27:09;16.30;;;9.98;;
74630;SDS011;63138;55.082;38.804;2023-04-04T05:29:41;21.63;;;10.52;;
74630;SDS011;63138;55.082;38.804;2023-04-04T05:32:07;15.52;;;9.98;;
74630;SDS011;63138;55.082;38.804;2023-04-04T05:34:40;18.98;;;11.77;;
74630;SDS011;63138;55.082;38.804;2023-04-04T05:37:10;18.67;;;11.50;;
74630;SDS011;63138;55.082;38.804;2023-04-04T05:39:37;18.63;;;11.20;;
74630;SDS011;63138;55.082;38.804;2023-04-04T05:42:07;14.30;;;10.05;;
74630;SDS011;63138;55.082;38.804;2023-04-04T05:44:37;14.20;;;9.68;;
74630;SDS011;63138;55.082;38.804;2023-04-04T05:47:33;11.15;;;7.75;;
74630;SDS011;63138;55.082;38.804;2023-04-04T05:50:00;11.10;;;8.60;;
74630;SDS011;63138;55.082;38.804;2023-04-04T05:52:31;13.48;;;9.70;;
74630;SDS011;63138;55.082;38.804;2023-04-04T05:54:58;14.68;;;9.43;;
74630;SDS011;63138;55.082;38.804;2023-04-04T06:01:15;11.15;;;8.95;;
74630;SDS011;63138;55.082;38.804;2023-04-04T06:03:43;13.83;;;9.20;;
74630;SDS011;63138;55.082;38.804;2023-04-04T06:06:13;12.65;;;9.63;;
74630;SDS011;63138;55.082;38.804;2023-04-04T06:08:40;10.32;;;9.05;;
74630;SDS011;63138;55.082;38.804;2023-04-04T06:11:06;11.43;;;9.13;;
74630;SDS011;63138;55.082;38.804;2023-04-04T06:13:33;12.80;;;9.52;;
74630;SDS011;63138;55.082;38.804;2023-04-04T06:16:05;13.60;;;10.20;;
74630;SDS011;63138;55.082;38.804;2023-04-04T06:18:31;15.40;;;10.45;;
74630;SDS011;63138;55.082;38.804;2023-04-04T06:21:01;13.98;;;10.52;;
74630;SDS011;63138;55.082;38.804;2023-04-04T06:23:28;17.38;;;11.23;;
74630;SDS011;63138;55.082;38.804;2023-04-04T06:25:54;19.48;;;11.75;;
74630;SDS011;63138;55.082;38.804;2023-04-04T06:28:22;15.57;;;10.33;;
74630;SDS011;63138;55.082;38.804;2023-04-04T06:30:48;15.60;;;10.48;;
74630;SDS011;63138;55.082;38.804;2023-04-04T06:33:25;16.20;;;10.35;;
74630;SDS011;63138;55.082;38.804;2023-04-04T06:35:51;17.85;;;9.90;;
74630;SDS011;63138;55.082;38.804;2023-04-04T06:38:18;12.95;;;8.88;;
74630;SDS011;63138;55.082;38.804;2023-04-04T06:40:44;12.93;;;8.83;;
74630;SDS011;63138;55.082;38.804;2023-04-04T06:43:30;13.48;;;8.90;;
74630;SDS011;63138;55.082;38.804;2023-04-04T06:45:56;12.40;;;8.32;;
74630;SDS011;63138;55.082;38.804;2023-04-04T06:48:22;12.27;;;8.50;;
74630;SDS011;63138;55.082;38.804;2023-04-04T06:50:51;13.90;;;8.45;;
74630;SDS011;63138;55.082;38.804;2023-04-04T06:53:17;20.55;;;10.57;;
74630;SDS011;63138;55.082;38.804;2023-04-04T06:55:44;16.50;;;9.63;;
74630;SDS011;63138;55.082;38.804;2023-04-04T06:58:10;21.88;;;10.77;;
74630;SDS011;63138;55.082;38.804;2023-04-04T07:00:40;21.77;;;10.50;;
74630;SDS011;63138;55.082;38.804;2023-04-04T07:03:07;19.63;;;11.27;;
74630;SDS011;63138;55.082;38.804;2023-04-04T07:05:36;15.90;;;10.23;;
74630;SDS011;63138;55.082;38.804;2023-04-04T07:08:04;16.05;;;9.85;;
74630;SDS011;63138;55.082;38.804;2023-04-04T07:10:32;17.13;;;9.63;;
74630;SDS011;63138;55.082;38.804;2023-04-04T07:15:51;14.05;;;9.88;;
74630;SDS011;63138;55.082;38.804;2023-04-04T07:18:18;17.30;;;11.32;;
74630;SDS011;63138;55.082;38.804;2023-04-04T07:20:45;18.15;;;10.25;;
74630;SDS011;63138;55.082;38.804;2023-04-04T07:23:13;23.95;;;11.38;;
74630;SDS011;63138;55.082;38.804;2023-04-04T07:25:40;19.37;;;10.70;;
74630;SDS011;63138;55.082;38.804;2023-04-04T07:28:06;20.35;;;10.38;;
74630;SDS011;63138;55.082;38.804;2023-04-04T07:30:33;15.30;;;10.02;;
74630;SDS011;63138;55.082;38.804;2023-04-04T07:33:00;19.58;;;9.98;;
74630;SDS011;63138;55.082;38.804;2023-04-04T07:35:33;16.48;;;10.15;;
74630;SDS011;63138;55.082;38.804;2023-04-04T07:38:01;18.20;;;10.20;;
74630;SDS011;63138;55.082;38.804;2023-04-04T07:40:52;16.25;;;10.60;;
74630;SDS011;63138;55.082;38.804;2023-04-04T07:43:19;19.13;;;10.30;;
74630;SDS011;63138;55.082;38.804;2023-04-04T07:45:44;20.00;;;10.77;;
74630;SDS011;63138;55.082;38.804;2023-04-04T07:48:10;15.40;;;10.20;;
74630;SDS011;63138;55.082;38.804;2023-04-04T07:50:40;24.52;;;10.02;;
74630;SDS011;63138;55.082;38.804;2023-04-04T07:53:07;16.42;;;10.13;;
74630;SDS011;63138;55.082;38.804;2023-04-04T07:55:33;17.37;;;10.20;;
74630;SDS011;63138;55.082;38.804;2023-04-04T07:57:58;16.35;;;10.55;;
74630;SDS011;63138;55.082;38.804;2023-04-04T08:00:24;21.30;;;11.13;;
74630;SDS011;63138;55.082;38.804;2023-04-04T08:02:52;16.27;;;9.73;;
74630;SDS011;63138;55.082;38.804;2023-04-04T08:05:20;14.75;;;9.63;;
74630;SDS011;63138;55.082;38.804;2023-04-04T08:07:46;17.67;;;11.32;;
74630;SDS011;63138;55.082;38.804;2023-04-04T08:10:12;19.52;;;10.50;;
74630;SDS011;63138;55.082;38.804;2023-04-04T08:15:58;17.33;;;8.43;;
74630;SDS011;63138;55.082;38.804;2023-04-04T08:18:24;13.45;;;8.15;;
74630;SDS011;63138;55.082;38.804;2023-04-04T08:21:16;16.80;;;10.18;;
74630;SDS011;63138;55.082;38.804;2023-04-04T08:26:37;18.83;;;8.40;;
74630;SDS011;63138;55.082;38.804;2023-04-04T08:29:03;18.20;;;9.23;;
74630;SDS011;63138;55.082;38.804;2023-04-04T08:31:29;20.70;;;9.80;;
74630;SDS011;63138;55.082;38.804;2023-04-04T08:33:55;29.85;;;12.88;;
74630;SDS011;63138;55.082;38.804;2023-04-04T08:36:22;42.38;;;18.67;;
74630;SDS011;63138;55.082;38.804;2023-04-04T08:38:48;51.25;;;21.98;;
74630;SDS011;63138;55.082;38.804;2023-04-04T08:41:14;53.00;;;23.00;;
74630;SDS011;63138;55.082;38.804;2023-04-04T08:43:42;53.35;;;23.35;;
74630;SDS011;63138;55.082;38.804;2023-04-04T08:46:10;37.85;;;19.10;;
74630;SDS011;63138;55.082;38.804;2023-04-04T08:48:41;51.58;;;23.95;;
74630;SDS011;63138;55.082;38.804;2023-04-04T08:51:10;25.60;;;14.52;;
74630;SDS011;63138;55.082;38.804;2023-04-04T08:53:38;21.40;;;13.00;;
74630;SDS011;63138;55.082;38.804;2023-04-04T08:56:05;22.23;;;12.13;;
74630;SDS011;63138;55.082;38.804;2023-04-04T08:58:31;22.15;;;10.75;;
74630;SDS011;63138;55.082;38.804;2023-04-04T09:00:57;12.23;;;7.03;;
74630;SDS011;63138;55.082;38.804;2023-04-04T09:03:24;8.67;;;6.33;;
74630;SDS011;63138;55.082;38.804;2023-04-04T09:05:55;13.63;;;5.45;;
74630;SDS011;63138;55.082;38.804;2023-04-04T09:08:21;11.52;;;5.22;;
74630;SDS011;63138;55.082;38.804;2023-04-04T09:10:51;10.82;;;5.20;;
74630;SDS011;63138;55.082;38.804;2023-04-04T09:13:18;11.27;;;5.97;;
74630;SDS011;63138;55.082;38.804;2023-04-04T09:15:47;9.27;;;5.30;;
74630;SDS011;63138;55.082;38.804;2023-04-04T09:18:16;10.95;;;4.63;;
74630;SDS011;63138;55.082;38.804;2023-04-04T09:20:44;11.45;;;5.22;;
74630;SDS011;63138;55.082;38.804;2023-04-04T09:23:16;10.35;;;4.90;;
74630;SDS011;63138;55.082;38.804;2023-04-04T09:28:19;15.17;;;5.43;;
74630;SDS011;63138;55.082;38.804;2023-04-04T09:30:47;9.18;;;4.45;;
74630;SDS011;63138;55.082;38.804;2023-04-04T09:33:14;10.07;;;4.45;;
74630;SDS011;63138;55.082;38.804;2023-04-04T09:35:45;10.52;;;4.60;;
74630;SDS011;63138;55.082;38.804;2023-04-04T09:38:22;7.60;;;4.60;;
74630;SDS011;63138;55.082;38.804;2023-04-04T09:40:49;8.53;;;4.63;;
74630;SDS011;63138;55.082;38.804;2023-04-04T09:43:18;11.38;;;4.80;;
74630;SDS011;63138;55.082;38.804;2023-04-04T09:45:47;10.82;;;4.88;;
74630;SDS011;63138;55.082;38.804;2023-04-04T09:48:27;15.38;;;5.25;;
74630;SDS011;63138;55.082;38.804;2023-04-04T09:51:04;13.65;;;5.28;;
74630;SDS011;63138;55.082;38.804;2023-04-04T09:53:34;10.27;;;4.50;;
74630;SDS011;63138;55.082;38.804;2023-04-04T09:56:05;9.52;;;5.05;;
74630;SDS011;63138;55.082;38.804;2023-04-04T09:58:56;8.35;;;4.05;;
74630;SDS011;63138;55.082;38.804;2023-04-04T10:01:24;10.43;;;4.80;;
74630;SDS011;63138;55.082;38.804;2023-04-04T10:03:52;10.35;;;4.90;;
74630;SDS011;63138;55.082;38.804;2023-04-04T10:06:19;8.73;;;4.40;;
74630;SDS011;63138;55.082;38.804;2023-04-04T10:08:46;5.68;;;3.95;;
74630;SDS011;63138;55.082;38.804;2023-04-04T10:11:13;7.63;;;4.40;;
74630;SDS011;63138;55.082;38.804;2023-04-04T10:14:18;9.48;;;4.75;;
74630;SDS011;63138;55.082;38.804;2023-04-04T10:20:14;8.93;;;4.37;;
74630;SDS011;63138;55.082;38.804;2023-04-04T10:22:59;8.75;;;4.00;;
74630;SDS011;63138;55.082;38.804;2023-04-04T10:32:05;7.15;;;4.32;;
74630;SDS011;63138;55.082;38.804;2023-04-04T10:34:40;6.90;;;4.07;;
74630;SDS011;63138;55.082;38.804;2023-04-04T10:40:24;5.82;;;3.50;;
74630;SDS011;63138;55.082;38.804;2023-04-04T10:42:52;8.93;;;4.05;;
74630;SDS011;63138;55.082;38.804;2023-04-04T10:45:22;9.27;;;3.97;;
74630;SDS011;63138;55.082;38.804;2023-04-04T10:47:48;8.17;;;4.50;;
74630;SDS011;63138;55.082;38.804;2023-04-04T10:50:16;13.73;;;5.22;;
74630;SDS011;63138;55.082;38.804;2023-04-04T10:52:45;11.80;;;4.80;;
74630;SDS011;63138;55.082;38.804;2023-04-04T10:55:36;8.82;;;4.05;;
74630;SDS011;63138;55.082;38.804;2023-04-04T10:58:23;9.50;;;4.30;;
74630;SDS011;63138;55.082;38.804;2023-04-04T11:00:50;10.03;;;4.50;;
74630;SDS011;63138;55.082;38.804;2023-04-04T11:03:19;15.98;;;4.75;;
74630;SDS011;63138;55.082;38.804;2023-04-04T11:05:45;11.87;;;4.57;;
74630;SDS011;63138;55.082;38.804;2023-04-04T11:08:32;13.23;;;5.32;;
74630;SDS011;63138;55.082;38.804;2023-04-04T11:14:56;8.80;;;5.60;;
74630;SDS011;63138;55.082;38.804;2023-04-04T11:17:43;11.38;;;4.90;;
74630;SDS011;63138;55.082;38.804;2023-04-04T11:26:44;9.35;;;5.13;;
74630;SDS011;63138;55.082;38.804;2023-04-04T11:29:20;11.30;;;5.50;;
74630;SDS011;63138;55.082;38.804;2023-04-04T11:32:13;11.05;;;5.72;;
74630;SDS011;63138;55.082;38.804;2023-04-04T11:34:54;9.70;;;5.38;;
74630;SDS011;63138;55.082;38.804;2023-04-04T11:40:15;11.38;;;6.00;;
74630;SDS011;63138;55.082;38.804;2023-04-04T11:42:42;13.63;;;6.30;;
74630;SDS011;63138;55.082;38.804;2023-04-04T11:48:02;11.07;;;5.18;;
74630;SDS011;63138;55.082;38.804;2023-04-04T11:50:38;8.80;;;4.35;;
74630;SDS011;63138;55.082;38.804;2023-04-04T11:53:08;11.27;;;4.70;;
74630;SDS011;63138;55.082;38.804;2023-04-04T11:55:40;11.47;;;5.50;;
74630;SDS011;63138;55.082;38.804;2023-04-04T11:58:08;10.63;;;4.80;;
74630;SDS011;63138;55.082;38.804;2023-04-04T12:01:01;14.43;;;4.72;;
74630;SDS011;63138;55.082;38.804;2023-04-04T12:06:50;11.15;;;4.75;;
74630;SDS011;63138;55.082;38.804;2023-04-04T12:09:24;9.47;;;4.43;;
74630;SDS011;63138;55.082;38.804;2023-04-04T12:11:51;10.30;;;4.95;;
74630;SDS011;63138;55.082;38.804;2023-04-04T12:14:18;9.23;;;4.22;;
74630;SDS011;63138;55.082;38.804;2023-04-04T12:16:49;14.00;;;4.72;;
74630;SDS011;63138;55.082;38.804;2023-04-04T12:19:17;9.90;;;4.68;;
74630;SDS011;63138;55.082;38.804;2023-04-04T12:21:46;8.93;;;4.87;;
74630;SDS011;63138;55.082;38.804;2023-04-04T12:24:17;14.52;;;4.85;;
74630;SDS011;63138;55.082;38.804;2023-04-04T12:29:43;10.05;;;4.05;;
74630;SDS011;63138;55.082;38.804;2023-04-04T12:32:12;7.38;;;3.88;;
74630;SDS011;63138;55.082;38.804;2023-04-04T12:34:42;9.10;;;4.03;;
74630;SDS011;63138;55.082;38.804;2023-04-04T12:37:09;10.57;;;4.15;;
74630;SDS011;63138;55.082;38.804;2023-04-04T12:39:45;7.63;;;3.80;;
74630;SDS011;63138;55.082;38.804;2023-04-04T12:42:33;11.48;;;4.00;;
74630;SDS011;63138;55.082;38.804;2023-04-04T12:45:01;8.50;;;3.70;;
74630;SDS011;63138;55.082;38.804;2023-04-04T12:47:29;7.63;;;3.70;;
74630;SDS011;63138;55.082;38.804;2023-04-04T12:50:19;7.70;;;3.95;;
74630;SDS011;63138;55.082;38.804;2023-04-04T12:52:50;15.57;;;4.55;;
74630;SDS011;63138;55.082;38.804;2023-04-04T12:55:35;10.77;;;4.25;;
74630;SDS011;63138;55.082;38.804;2023-04-04T12:58:01;13.53;;;4.73;;
74630;SDS011;63138;55.082;38.804;2023-04-04T13:00:28;10.38;;;4.40;;
74630;SDS011;63138;55.082;38.804;2023-04-04T13:02:55;11.77;;;5.03;;
74630;SDS011;63138;55.082;38.804;2023-04-04T13:05:21;9.90;;;4.05;;
74630;SDS011;63138;55.082;38.804;2023-04-04T13:07:50;10.15;;;4.60;;
74630;SDS011;63138;55.082;38.804;2023-04-04T13:10:16;10.77;;;4.87;;
74630;SDS011;63138;55.082;38.804;2023-04-04T13:13:09;8.07;;;4.15;;
74630;SDS011;63138;55.082;38.804;2023-04-04T13:15:51;9.60;;;3.90;;
74630;SDS011;63138;55.082;38.804;2023-04-04T13:18:18;11.17;;;4.03;;
74630;SDS011;63138;55.082;38.804;2023-04-04T13:20:49;6.57;;;3.58;;
74630;SDS011;63138;55.082;38.804;2023-04-04T13:23:21;11.05;;;4.28;;
74630;SDS011;63138;55.082;38.804;2023-04-04T13:25:47;12.38;;;4.30;;
74630;SDS011;63138;55.082;38.804;2023-04-04T13:31:06;11.53;;;3.83;;
74630;SDS011;63138;55.082;38.804;2023-04-04T13:34:22;6.75;;;4.20;;
74630;SDS011;63138;55.082;38.804;2023-04-04T13:36:49;14.68;;;4.28;;
74630;SDS011;63138;55.082;38.804;2023-04-04T13:39:16;13.95;;;4.40;;
74630;SDS011;63138;55.082;38.804;2023-04-04T13:41:43;15.32;;;4.70;;
74630;SDS011;63138;55.082;38.804;2023-04-04T13:44:09;8.87;;;4.17;;
74630;SDS011;63138;55.082;38.804;2023-04-04T13:46:36;6.88;;;4.07;;
74630;SDS011;63138;55.082;38.804;2023-04-04T13:49:03;7.43;;;4.07;;
74630;SDS011;63138;55.082;38.804;2023-04-04T13:51:29;9.55;;;4.53;;
74630;SDS011;63138;55.082;38.804;2023-04-04T13:53:55;8.68;;;4.40;;
74630;SDS011;63138;55.082;38.804;2023-04-04T13:56:21;8.27;;;4.97;;
74630;SDS011;63138;55.082;38.804;2023-04-04T13:58:49;10.38;;;4.70;;
74630;SDS011;63138;55.082;38.804;2023-04-04T14:01:15;11.70;;;4.18;;
74630;SDS011;63138;55.082;38.804;2023-04-04T14:03:44;9.02;;;4.13;;
74630;SDS011;63138;55.082;38.804;2023-04-04T14:06:11;13.00;;;5.50;;
74630;SDS011;63138;55.082;38.804;2023-04-04T14:08:38;14.97;;;6.03;;
74630;SDS011;63138;55.082;38.804;2023-04-04T14:11:04;15.27;;;6.03;;
74630;SDS011;63138;55.082;38.804;2023-04-04T14:13:31;24.92;;;5.32;;
74630;SDS011;63138;55.082;38.804;2023-04-04T14:16:02;12.68;;;4.88;;
74630;SDS011;63138;55.082;38.804;2023-04-04T14:18:29;12.05;;;5.10;;
74630;SDS011;63138;55.082;38.804;2023-04-04T14:20:55;14.33;;;5.30;;
74630;SDS011;63138;55.082;38.804;2023-04-04T14:23:21;12.43;;;5.50;;
74630;SDS011;63138;55.082;38.804;2023-04-04T14:25:49;15.93;;;5.60;;
74630;SDS011;63138;55.082;38.804;2023-04-04T14:28:15;19.85;;;6.32;;
74630;SDS011;63138;55.082;38.804;2023-04-04T14:30:42;17.42;;;5.40;;
74630;SDS011;63138;55.082;38.804;2023-04-04T14:33:12;14.70;;;5.70;;
74630;SDS011;63138;55.082;38.804;2023-04-04T14:35:39;17.30;;;5.15;;
74630;SDS011;63138;55.082;38.804;2023-04-04T14:38:05;17.45;;;5.60;;
74630;SDS011;63138;55.082;38.804;2023-04-04T14:40:32;16.23;;;6.05;;
74630;SDS011;63138;55.082;38.804;2023-04-04T14:42:58;17.42;;;5.57;;
74630;SDS011;63138;55.082;38.804;2023-04-04T14:48:20;19.35;;;5.68;;
74630;SDS011;63138;55.082;38.804;2023-04-04T14:50:47;17.45;;;6.03;;
74630;SDS011;63138;55.082;38.804;2023-04-04T14:56:08;15.52;;;5.07;;
74630;SDS011;63138;55.082;38.804;2023-04-04T14:58:35;12.10;;;5.40;;
74630;SDS011;63138;55.082;38.804;2023-04-04T15:01:04;11.43;;;5.32;;
74630;SDS011;63138;55.082;38.804;2023-04-04T15:03:35;19.42;;;5.97;;
74630;SDS011;63138;55.082;38.804;2023-04-04T15:06:01;20.63;;;5.63;;
74630;SDS011;63138;55.082;38.804;2023-04-04T15:08:29;13.80;;;5.35;;
74630;SDS011;63138;55.082;38.804;2023-04-04T15:10:56;12.33;;;5.20;;
74630;SDS011;63138;55.082;38.804;2023-04-04T15:13:22;14.32;;;5.00;;
74630;SDS011;63138;55.082;38.804;2023-04-04T15:15:48;14.80;;;6.23;;
74630;SDS011;63138;55.082;38.804;2023-04-04T15:18:32;9.20;;;4.82;;
74630;SDS011;63138;55.082;38.804;2023-04-04T15:21:01;11.85;;;5.82;;
74630;SDS011;63138;55.082;38.804;2023-04-04T15:23:27;16.85;;;6.28;;
74630;SDS011;63138;55.082;38.804;2023-04-04T15:25:54;17.73;;;5.13;;
74630;SDS011;63138;55.082;38.804;2023-04-04T15:28:20;19.87;;;5.60;;
74630;SDS011;63138;55.082;38.804;2023-04-04T15:30:46;20.80;;;6.65;;
74630;SDS011;63138;55.082;38.804;2023-04-04T15:33:12;24.60;;;7.20;;
74630;SDS011;63138;55.082;38.804;2023-04-04T15:35:38;34.77;;;6.80;;
74630;SDS011;63138;55.082;38.804;2023-04-04T15:38:05;14.00;;;6.00;;
74630;SDS011;63138;55.082;38.804;2023-04-04T15:40:32;21.60;;;6.45;;